createdAt,value
2018-11-14T00:00:23.011Z,34.73
2018-11-14T00:02:52.189Z,34.63
2018-11-14T00:05:20.095Z,38.63
2018-11-14T00:07:48.497Z,40.60
2018-11-14T00:10:16.906Z,34.97
2018-11-14T00:12:44.547Z,39.67
2018-11-14T00:15:15.143Z,40.13
2018-11-14T00:17:44.908Z,42.37
2018-11-14T00:20:13.276Z,37.90
2018-11-14T00:22:43.819Z,41.67
2018-11-14T00:25:11.993Z,35.93
2018-11-14T00:27:40.126Z,38.17
2018-11-14T00:30:17.883Z,33.77
2018-11-14T00:32:46.178Z,38.07
2018-11-14T00:35:16.275Z,40.67
2018-11-14T00:37:45.541Z,38.20
2018-11-14T00:40:14.875Z,40.07
2018-11-14T00:42:45.531Z,40.07
2018-11-14T00:45:18.073Z,42.60
2018-11-14T00:47:47.641Z,37.60
2018-11-14T00:50:17.058Z,40.03
2018-11-14T00:52:46.777Z,39.93
2018-11-14T00:55:18.048Z,39.97
2018-11-14T00:57:48.183Z,43.00
2018-11-14T01:00:18.924Z,40.77
2018-11-14T01:02:46.933Z,41.23
2018-11-14T01:05:15.592Z,40.37
2018-11-14T01:07:43.558Z,40.20
2018-11-14T01:10:14.091Z,36.63
2018-11-14T01:12:42.402Z,39.87
2018-11-14T01:15:13.499Z,39.40
2018-11-14T01:17:41.940Z,37.03
2018-11-14T01:20:12.496Z,37.47
2018-11-14T01:22:41.087Z,36.17
2018-11-14T01:25:10.117Z,39.87
2018-11-14T01:27:38.136Z,38.73
2018-11-14T01:30:08.875Z,41.57
2018-11-14T01:32:36.786Z,41.23
2018-11-14T01:35:05.490Z,41.67
2018-11-14T01:37:33.495Z,39.00
2018-11-14T01:40:01.551Z,35.33
2018-11-14T01:42:29.449Z,39.43
2018-11-14T01:45:03.786Z,39.50
2018-11-14T01:47:31.853Z,37.83
2018-11-14T01:49:59.811Z,37.97
2018-11-14T01:52:27.813Z,39.07
2018-11-14T01:54:55.810Z,39.43
2018-11-14T01:57:23.936Z,40.10
2018-11-14T01:59:51.821Z,40.70
2018-11-14T02:02:19.737Z,36.40
2018-11-14T02:04:47.732Z,41.40
2018-11-14T02:07:15.745Z,37.10
2018-11-14T02:09:43.832Z,37.57
2018-11-14T02:12:11.758Z,36.53
2018-11-14T02:14:39.630Z,39.57
2018-11-14T02:17:07.620Z,39.83
2018-11-14T02:19:36.719Z,39.40
2018-11-14T02:22:04.915Z,43.67
2018-11-14T02:24:33.946Z,43.23
2018-11-14T02:27:01.878Z,45.27
2018-11-14T02:29:29.987Z,42.43
2018-11-14T02:31:58.591Z,43.23
2018-11-14T02:34:26.660Z,44.90
2018-11-14T02:36:54.652Z,42.03
2018-11-14T02:39:22.688Z,38.27
2018-11-14T02:41:50.831Z,33.40
2018-11-14T02:44:20.281Z,39.17
2018-11-14T02:46:48.430Z,35.33
2018-11-14T02:49:16.387Z,33.93
2018-11-14T02:51:44.358Z,36.37
2018-11-14T02:54:12.327Z,36.10
2018-11-14T02:56:40.273Z,38.63
2018-11-14T02:59:08.279Z,37.53
2018-11-14T03:01:36.256Z,37.67
2018-11-14T03:04:04.382Z,39.97
2018-11-14T03:06:32.357Z,41.50
2018-11-14T03:09:00.328Z,38.60
2018-11-14T03:11:28.226Z,36.73
2018-11-14T03:13:56.163Z,42.23
2018-11-14T03:16:24.075Z,41.00
2018-11-14T03:18:51.954Z,39.57
2018-11-14T03:21:19.854Z,42.63
2018-11-14T03:23:48.886Z,35.00
2018-11-14T03:26:16.821Z,33.10
2018-11-14T03:28:44.753Z,35.93
2018-11-14T03:31:13.377Z,38.50
2018-11-14T03:33:41.239Z,38.30
2018-11-14T03:36:14.610Z,34.70
2018-11-14T03:38:42.472Z,36.53
2018-11-14T03:41:10.640Z,36.80
2018-11-14T03:43:38.702Z,36.30
2018-11-14T03:46:06.784Z,31.73
2018-11-14T03:48:34.747Z,38.47
2018-11-14T03:51:02.830Z,30.83
2018-11-14T03:53:30.760Z,37.40
2018-11-14T03:55:58.741Z,39.37
2018-11-14T03:58:26.748Z,39.67
2018-11-14T04:00:54.579Z,38.07
2018-11-14T04:03:23.234Z,38.53
2018-11-14T04:05:51.243Z,39.53
2018-11-14T04:08:19.291Z,40.33
2018-11-14T04:10:47.166Z,38.57
2018-11-14T04:13:15.094Z,38.67
2018-11-14T04:15:43.065Z,42.10
2018-11-14T04:18:11.002Z,43.00
2018-11-14T04:20:38.931Z,42.07
2018-11-14T04:23:06.870Z,42.20
2018-11-14T04:25:34.838Z,40.77
2018-11-14T04:28:02.781Z,40.43
2018-11-14T04:30:30.786Z,40.70
2018-11-14T04:32:58.762Z,45.23
2018-11-14T04:35:26.870Z,46.03
2018-11-14T04:37:54.977Z,42.47
2018-11-14T04:40:23.948Z,45.33
2018-11-14T04:42:51.941Z,44.93
2018-11-14T04:45:22.054Z,47.10
2018-11-14T04:47:50.231Z,43.67
2018-11-14T04:50:19.875Z,42.37
2018-11-14T04:52:48.728Z,42.03
2018-11-14T04:55:18.846Z,38.90
2018-11-14T04:57:48.005Z,33.90
2018-11-14T05:00:16.835Z,39.97
2018-11-14T05:02:45.640Z,37.63
2018-11-14T05:05:15.015Z,38.33
2018-11-14T05:07:43.057Z,40.77
2018-11-14T05:10:13.453Z,30.63
2018-11-14T05:12:41.422Z,34.07
2018-11-14T05:15:10.831Z,31.67
2018-11-14T05:17:38.896Z,29.53
2018-11-14T05:20:08.389Z,23.80
2018-11-14T05:22:36.486Z,27.03
2018-11-14T05:25:05.415Z,30.37
2018-11-14T05:27:33.459Z,26.23
2018-11-14T05:30:06.490Z,33.03
2018-11-14T05:32:34.553Z,41.03
2018-11-14T05:35:07.915Z,36.60
2018-11-14T05:37:36.791Z,36.20
2018-11-14T05:40:06.632Z,41.73
2018-11-14T05:42:34.833Z,44.63
2018-11-14T05:45:02.864Z,52.03
2018-11-14T05:47:30.776Z,62.47
2018-11-14T05:49:58.747Z,64.13
2018-11-14T05:52:27.406Z,77.00
2018-11-14T05:54:55.966Z,77.80
2018-11-14T05:57:28.405Z,74.73
2018-11-14T05:59:56.367Z,72.57
2018-11-14T06:02:24.416Z,59.17
2018-11-14T06:04:52.425Z,60.27
2018-11-14T06:07:20.567Z,60.93
2018-11-14T06:09:48.947Z,57.97
2018-11-14T06:12:17.002Z,67.87
2018-11-14T06:14:44.954Z,64.13
2018-11-14T06:17:12.933Z,55.80
2018-11-14T06:19:40.971Z,59.23
2018-11-14T06:22:08.957Z,63.20
2018-11-14T06:24:37.081Z,64.33
2018-11-14T06:27:05.156Z,66.37
2018-11-14T06:29:33.212Z,76.23
2018-11-14T06:32:01.234Z,72.27
2018-11-14T06:34:29.268Z,73.83
2018-11-14T06:36:57.363Z,70.87
2018-11-14T06:39:25.679Z,72.70
2018-11-14T06:41:53.677Z,73.87
2018-11-14T06:44:21.716Z,68.60
2018-11-14T06:46:50.504Z,71.73
2018-11-14T06:49:18.686Z,75.67
2018-11-14T06:51:46.915Z,69.27
2018-11-14T06:54:14.895Z,71.77
2018-11-14T06:56:42.929Z,70.27
2018-11-14T06:59:10.955Z,65.47
2018-11-14T07:01:38.794Z,65.50
2018-11-14T07:04:07.018Z,63.33
2018-11-14T07:06:34.997Z,62.43
2018-11-14T07:09:03.353Z,55.90
2018-11-14T07:11:31.887Z,63.43
2018-11-14T07:13:59.912Z,70.30
2018-11-14T07:16:27.902Z,67.50
2018-11-14T07:18:55.887Z,59.47
2018-11-14T07:21:23.857Z,60.33
2018-11-14T07:23:56.358Z,57.50
2018-11-14T07:26:31.930Z,58.77
2018-11-14T07:29:04.511Z,56.60
2018-11-14T07:31:37.156Z,55.63
2018-11-14T07:34:05.710Z,64.60
2018-11-14T07:36:34.102Z,55.60
2018-11-14T07:39:08.160Z,50.57
2018-11-14T07:41:40.227Z,53.30
2018-11-14T07:44:15.213Z,52.23
2018-11-14T07:46:57.512Z,56.13
2018-11-14T07:49:25.659Z,55.70
2018-11-14T07:51:54.059Z,58.57
2018-11-14T07:54:23.004Z,50.80
2018-11-14T07:56:51.042Z,50.97
2018-11-14T07:59:18.976Z,55.00
2018-11-14T08:01:48.094Z,51.30
2018-11-14T08:04:16.078Z,53.10
2018-11-14T08:06:46.912Z,50.87
2018-11-14T08:09:17.488Z,54.23
2018-11-14T08:11:47.573Z,48.60
2018-11-14T08:14:16.215Z,43.97
2018-11-14T08:16:46.101Z,43.53
2018-11-14T08:19:16.322Z,45.80
2018-11-14T08:21:46.548Z,46.80
2018-11-14T08:24:16.801Z,40.47
2018-11-14T08:26:47.017Z,44.27
2018-11-14T08:29:16.978Z,43.27
2018-11-14T08:31:46.983Z,39.63
2018-11-14T08:34:16.993Z,49.20
2018-11-14T08:36:46.917Z,45.47
2018-11-14T08:39:17.532Z,44.27
2018-11-14T08:41:47.750Z,50.80
2018-11-14T08:44:18.170Z,49.93
2018-11-14T08:46:49.076Z,48.03
2018-11-14T08:49:19.056Z,50.87
2018-11-14T08:51:49.087Z,53.23
2018-11-14T08:54:17.097Z,55.60
2018-11-14T08:56:45.143Z,62.00
2018-11-14T08:59:13.072Z,53.50
2018-11-14T09:01:42.120Z,52.97
2018-11-14T09:04:10.427Z,50.07
2018-11-14T09:06:38.398Z,52.73
2018-11-14T09:09:08.697Z,56.23
2018-11-14T09:11:36.870Z,56.03
2018-11-14T09:14:05.189Z,56.37
2018-11-14T09:16:33.209Z,57.90
2018-11-14T09:19:01.289Z,57.73
2018-11-14T09:21:29.262Z,54.93
2018-11-14T09:23:57.410Z,48.87
2018-11-14T09:26:25.397Z,48.37
2018-11-14T09:28:53.311Z,47.43
2018-11-14T09:31:21.291Z,45.27
2018-11-14T09:33:49.354Z,41.63
2018-11-14T09:36:17.443Z,41.50
2018-11-14T09:38:45.409Z,39.30
2018-11-14T09:41:13.474Z,42.23
2018-11-14T09:43:41.586Z,40.87
2018-11-14T09:46:09.560Z,39.07
2018-11-14T09:48:37.546Z,42.27
2018-11-14T09:51:05.555Z,37.17
2018-11-14T09:53:33.510Z,35.70
2018-11-14T09:56:01.425Z,34.70
2018-11-14T09:58:29.914Z,33.27
2018-11-14T10:00:58.070Z,35.17
2018-11-14T10:03:26.101Z,34.03
2018-11-14T10:05:54.215Z,32.43
2018-11-14T10:08:22.191Z,34.10
2018-11-14T10:10:50.222Z,31.13
2018-11-14T10:13:18.083Z,32.17
2018-11-14T10:15:46.134Z,30.93
2018-11-14T10:18:14.081Z,31.77
2018-11-14T10:20:42.087Z,30.57
2018-11-14T10:23:10.058Z,32.70
2018-11-14T10:25:37.974Z,31.03
2018-11-14T10:28:06.053Z,34.40
2018-11-14T10:30:34.038Z,33.07
2018-11-14T10:33:02.432Z,32.87
2018-11-14T10:35:30.538Z,36.68
2018-11-14T10:37:58.446Z,33.33
2018-11-14T10:40:27.673Z,32.03
2018-11-14T10:42:55.829Z,33.60
2018-11-14T10:48:11.961Z,34.10
2018-11-14T10:50:40.082Z,32.23
2018-11-14T10:53:08.463Z,37.85
2018-11-14T10:55:36.677Z,35.40
2018-11-14T10:58:04.974Z,35.77
2018-11-14T11:00:38.501Z,32.03
2018-11-14T11:03:16.843Z,36.03
2018-11-14T11:05:50.463Z,33.50
2018-11-14T11:08:30.450Z,34.30
2018-11-14T11:11:03.885Z,35.43
2018-11-14T11:13:37.459Z,34.60
2018-11-14T11:16:10.984Z,35.33
2018-11-14T11:18:38.886Z,37.77
2018-11-14T11:21:07.373Z,36.77
2018-11-14T11:23:35.552Z,34.30
2018-11-14T11:26:03.681Z,34.50
2018-11-14T11:28:32.758Z,36.00
2018-11-14T11:31:00.874Z,39.47
2018-11-14T11:33:28.952Z,41.90
2018-11-14T11:35:57.002Z,37.93
2018-11-14T11:38:25.099Z,39.83
2018-11-14T11:40:53.223Z,37.83
2018-11-14T11:43:21.583Z,40.17
2018-11-14T11:45:49.818Z,37.77
2018-11-14T11:48:17.843Z,46.20
2018-11-14T11:50:45.987Z,46.20
2018-11-14T11:53:13.953Z,43.73
2018-11-14T11:55:41.985Z,45.23
2018-11-14T11:58:10.098Z,44.17
2018-11-14T12:00:38.375Z,43.43
2018-11-14T12:03:09.084Z,42.13
2018-11-14T12:05:39.116Z,44.20
2018-11-14T12:08:07.038Z,41.23
2018-11-14T12:10:36.187Z,41.60
2018-11-14T12:13:04.528Z,41.80
2018-11-14T12:15:32.727Z,41.37
2018-11-14T12:18:00.883Z,40.10
2018-11-14T12:20:28.962Z,40.13
2018-11-14T12:22:56.958Z,41.43
2018-11-14T12:25:24.922Z,38.87
2018-11-14T12:27:52.932Z,42.77
2018-11-14T12:30:20.965Z,45.40
2018-11-14T12:32:48.996Z,44.23
2018-11-14T12:35:17.195Z,43.83
2018-11-14T12:37:45.161Z,45.13
2018-11-14T12:40:13.885Z,40.97
2018-11-14T12:42:42.048Z,46.73
2018-11-14T12:45:14.532Z,43.70
2018-11-14T12:47:42.431Z,42.60
2018-11-14T12:50:11.605Z,47.43
2018-11-14T12:52:40.010Z,46.70
2018-11-14T12:55:10.188Z,43.03
2018-11-14T12:57:46.027Z,43.90
2018-11-14T13:00:16.454Z,48.57
2018-11-14T13:02:44.746Z,48.97
2018-11-14T13:05:13.594Z,48.53
2018-11-14T13:07:41.723Z,45.67
2018-11-14T13:10:11.725Z,46.67
2018-11-14T13:12:41.077Z,48.13
2018-11-14T13:15:10.246Z,46.90
2018-11-14T13:17:38.386Z,50.23
2018-11-14T13:20:09.061Z,49.30
2018-11-14T13:22:37.050Z,47.20
2018-11-14T13:25:06.885Z,47.40
2018-11-14T13:27:34.876Z,49.37
2018-11-14T13:30:03.187Z,47.30
2018-11-14T13:32:31.859Z,44.40
2018-11-14T13:34:59.926Z,49.43
2018-11-14T13:37:28.016Z,49.73
2018-11-14T13:39:56.006Z,48.27
2018-11-14T13:42:24.362Z,47.33
2018-11-14T13:44:52.359Z,49.67
2018-11-14T13:47:20.336Z,45.93
2018-11-14T13:49:55.231Z,47.43
2018-11-14T13:52:23.203Z,50.17
2018-11-14T13:54:51.344Z,44.33
2018-11-14T13:57:19.622Z,53.48
2018-11-14T13:59:48.045Z,50.13
2018-11-14T14:02:18.191Z,49.93
2018-11-14T14:04:46.217Z,53.60
2018-11-14T14:10:08.136Z,49.73
2018-11-14T14:12:36.182Z,44.50
2018-11-14T14:15:05.021Z,46.17
2018-11-14T14:17:33.012Z,48.70
2018-11-14T14:20:01.065Z,46.77
2018-11-14T14:22:29.067Z,47.70
2018-11-14T14:24:57.134Z,46.83
2018-11-14T14:27:25.153Z,45.53
2018-11-14T14:29:53.224Z,47.87
2018-11-14T14:32:21.463Z,43.67
2018-11-14T14:34:49.598Z,44.17
2018-11-14T14:37:17.589Z,43.07
2018-11-14T14:39:45.617Z,44.17
2018-11-14T14:42:13.766Z,44.53
2018-11-14T14:44:41.971Z,45.80
2018-11-14T14:47:10.241Z,43.57
2018-11-14T14:49:38.310Z,43.17
2018-11-14T14:52:07.576Z,45.43
2018-11-14T14:54:35.614Z,44.30
2018-11-14T14:57:04.526Z,44.30
2018-11-14T14:59:32.446Z,43.90
2018-11-14T15:02:01.496Z,43.70
2018-11-14T15:04:29.737Z,44.43
2018-11-14T15:06:59.025Z,43.30
2018-11-14T15:09:27.481Z,41.00
2018-11-14T15:11:55.998Z,41.10
2018-11-14T15:14:24.115Z,38.27
2018-11-14T15:16:52.331Z,37.67
2018-11-14T15:19:20.778Z,35.03
2018-11-14T15:21:49.136Z,35.33
2018-11-14T15:24:17.479Z,33.87
2018-11-14T15:26:45.565Z,34.70
2018-11-14T15:29:13.593Z,35.57
2018-11-14T15:31:41.690Z,34.83
2018-11-14T15:34:09.672Z,35.70
2018-11-14T15:36:38.220Z,34.13
2018-11-14T15:39:09.045Z,37.67
2018-11-14T15:41:37.073Z,37.07
2018-11-14T15:44:05.422Z,34.47
2018-11-14T15:46:33.406Z,35.07
2018-11-14T15:49:01.397Z,36.90
2018-11-14T15:51:30.029Z,37.53
2018-11-14T15:53:58.049Z,38.80
2018-11-14T15:56:26.166Z,33.40
2018-11-14T15:58:54.151Z,34.47
2018-11-14T16:01:22.304Z,35.90
2018-11-14T16:03:50.400Z,35.30
2018-11-14T16:06:19.301Z,34.27
2018-11-14T16:08:47.284Z,34.07
2018-11-14T16:11:15.305Z,33.30
2018-11-14T16:13:47.764Z,33.60
2018-11-14T16:16:15.731Z,32.10
2018-11-14T16:18:43.810Z,32.07
2018-11-14T16:21:11.897Z,30.90
2018-11-14T16:23:40.036Z,32.10
2018-11-14T16:26:07.939Z,30.70
2018-11-14T16:28:35.888Z,31.67
2018-11-14T16:31:03.881Z,30.67
2018-11-14T16:33:31.899Z,29.43
2018-11-14T16:35:59.978Z,29.57
2018-11-14T16:38:27.935Z,29.73
2018-11-14T16:40:56.009Z,31.93
2018-11-14T16:43:24.276Z,31.63
2018-11-14T16:45:52.382Z,29.13
2018-11-14T16:48:20.288Z,28.43
2018-11-14T16:50:50.056Z,30.13
2018-11-14T16:53:18.354Z,28.77
2018-11-14T16:55:46.448Z,29.33
2018-11-14T16:58:15.838Z,27.60
2018-11-14T17:00:43.756Z,29.40
2018-11-14T17:03:12.352Z,27.30
2018-11-14T17:05:40.408Z,24.70
2018-11-14T17:08:08.354Z,23.73
2018-11-14T17:10:36.288Z,24.43
2018-11-14T17:13:04.927Z,22.30
2018-11-14T17:15:33.010Z,28.83
2018-11-14T17:18:01.763Z,23.10
2018-11-14T17:20:30.015Z,20.87
2018-11-14T17:22:58.226Z,24.57
2018-11-14T17:25:26.241Z,24.07
2018-11-14T17:27:54.248Z,20.77
2018-11-14T17:30:25.394Z,21.80
2018-11-14T17:32:53.741Z,22.87
2018-11-14T17:35:21.741Z,24.50
2018-11-14T17:37:49.737Z,22.53
2018-11-14T17:40:19.923Z,22.77
2018-11-14T17:42:48.846Z,23.10
2018-11-14T17:45:18.048Z,21.30
2018-11-14T17:47:46.675Z,22.20
2018-11-14T17:50:18.074Z,19.10
2018-11-14T17:52:47.030Z,22.20
2018-11-14T17:55:19.474Z,20.77
2018-11-14T17:57:47.494Z,22.43
2018-11-14T18:00:17.430Z,20.87
2018-11-14T18:02:45.875Z,23.47
2018-11-14T18:05:16.080Z,21.97
2018-11-14T18:07:45.029Z,21.67
2018-11-14T18:10:17.335Z,21.13
2018-11-14T18:12:46.335Z,22.90
2018-11-14T18:15:14.346Z,23.87
2018-11-14T18:17:42.531Z,24.10
2018-11-14T18:20:12.432Z,24.37
2018-11-14T18:22:41.028Z,24.00
2018-11-14T18:25:09.636Z,21.30
2018-11-14T18:27:37.807Z,22.63
2018-11-14T18:30:19.622Z,25.17
2018-11-14T18:32:47.616Z,21.53
2018-11-14T18:35:16.450Z,21.53
2018-11-14T18:37:44.998Z,21.20
2018-11-14T18:40:15.816Z,19.93
2018-11-14T18:42:43.881Z,20.77
2018-11-14T18:45:14.858Z,20.27
2018-11-14T18:47:43.371Z,24.70
2018-11-14T18:50:12.377Z,21.47
2018-11-14T18:52:40.490Z,21.33
2018-11-14T18:55:10.277Z,20.90
2018-11-14T18:57:40.878Z,21.73
2018-11-14T19:00:15.735Z,20.33
2018-11-14T19:02:43.868Z,21.17
2018-11-14T19:05:12.336Z,22.73
2018-11-14T19:07:40.392Z,21.13
2018-11-14T19:10:11.225Z,21.33
2018-11-14T19:12:39.775Z,23.83
2018-11-14T19:15:09.861Z,23.70
2018-11-14T19:17:37.844Z,23.70
2018-11-14T19:20:07.475Z,22.83
2018-11-14T19:22:35.838Z,22.53
2018-11-14T19:25:03.878Z,22.30
2018-11-14T19:27:31.979Z,21.67
2018-11-14T19:30:00.100Z,22.47
2018-11-14T19:32:28.365Z,22.23
2018-11-14T19:34:56.358Z,22.03
2018-11-14T19:37:24.623Z,22.33
2018-11-14T19:39:52.583Z,23.23
2018-11-14T19:42:20.609Z,22.33
2018-11-14T19:44:48.571Z,21.17
2018-11-14T19:47:16.582Z,21.50
2018-11-14T19:49:44.545Z,21.13
2018-11-14T19:52:13.406Z,22.33
2018-11-14T19:54:41.385Z,21.80
2018-11-14T19:57:09.299Z,21.07
2018-11-14T19:59:37.210Z,23.33
2018-11-14T20:02:05.239Z,23.83
2018-11-14T20:04:33.197Z,21.70
2018-11-14T20:07:01.165Z,22.10
2018-11-14T20:09:29.351Z,20.57
2018-11-14T20:11:57.472Z,21.37
2018-11-14T20:14:25.574Z,20.77
2018-11-14T20:16:53.964Z,22.00
2018-11-14T20:19:22.850Z,22.10
2018-11-14T20:21:51.280Z,22.60
2018-11-14T20:24:19.274Z,22.30
2018-11-14T20:26:49.218Z,20.60
2018-11-14T20:29:17.103Z,20.53
2018-11-14T20:31:45.037Z,22.63
2018-11-14T20:34:13.045Z,21.10
2018-11-14T20:36:41.049Z,21.57
2018-11-14T20:39:11.105Z,21.50
2018-11-14T20:41:39.066Z,22.03
2018-11-14T20:44:07.076Z,22.73
2018-11-14T20:46:37.009Z,23.43
2018-11-14T20:49:05.198Z,23.00
2018-11-14T20:51:33.327Z,21.67
2018-11-14T20:54:01.630Z,22.07
2018-11-14T20:56:29.584Z,23.90
2018-11-14T20:58:57.487Z,22.10
2018-11-14T21:01:25.493Z,22.30
2018-11-14T21:03:53.597Z,21.33
2018-11-14T21:06:21.777Z,21.93
2018-11-14T21:08:49.787Z,23.50
2018-11-14T21:11:18.698Z,27.93
2018-11-14T21:13:46.754Z,26.57
2018-11-14T21:16:14.726Z,24.83
2018-11-14T21:18:42.668Z,25.30
2018-11-14T21:21:10.545Z,25.23
2018-11-14T21:23:38.477Z,23.97
2018-11-14T21:26:06.428Z,22.80
2018-11-14T21:28:34.478Z,23.97
2018-11-14T21:31:03.307Z,23.33
2018-11-14T21:33:31.385Z,23.60
2018-11-14T21:35:59.462Z,22.83
2018-11-14T21:38:27.587Z,20.67
2018-11-14T21:40:55.921Z,22.90
2018-11-14T21:43:23.873Z,22.23
2018-11-14T21:45:52.059Z,23.83
2018-11-14T21:48:20.118Z,24.97
2018-11-14T21:50:48.028Z,23.77
2018-11-14T21:53:16.031Z,22.70
2018-11-14T21:55:43.940Z,21.70
2018-11-14T21:58:13.431Z,23.10
2018-11-14T22:00:41.558Z,24.27
2018-11-14T22:03:10.107Z,24.40
2018-11-14T22:05:38.382Z,23.57
2018-11-14T22:08:07.341Z,22.70
2018-11-14T22:10:35.387Z,23.07
2018-11-14T22:13:03.293Z,23.13
2018-11-14T22:15:31.574Z,23.67
2018-11-14T22:17:59.584Z,24.67
2018-11-14T22:20:28.042Z,25.30
2018-11-14T22:22:55.984Z,24.70
2018-11-14T22:25:24.834Z,24.53
2018-11-14T22:27:52.932Z,23.90
2018-11-14T22:30:30.577Z,24.20
2018-11-14T22:32:58.572Z,25.67
2018-11-14T22:35:27.836Z,25.10
2018-11-14T22:37:56.604Z,27.43
2018-11-14T22:40:25.642Z,26.33
2018-11-14T22:42:53.552Z,26.67
2018-11-14T22:45:26.754Z,26.17
2018-11-14T22:47:54.690Z,24.90
2018-11-14T22:50:23.599Z,28.20
2018-11-14T22:52:51.793Z,26.37
2018-11-14T22:55:20.703Z,25.37
2018-11-14T22:57:49.489Z,25.27
2018-11-14T23:00:28.968Z,25.50
2018-11-14T23:02:57.951Z,25.73
2018-11-14T23:05:25.936Z,27.33
2018-11-14T23:07:54.587Z,25.70
2018-11-14T23:10:23.237Z,27.37
2018-11-14T23:12:51.405Z,25.63
2018-11-14T23:15:19.838Z,27.10
2018-11-14T23:17:47.981Z,26.17
2018-11-14T23:20:16.421Z,25.60
2018-11-14T23:22:45.175Z,26.67
2018-11-14T23:25:13.649Z,27.13
2018-11-14T23:27:42.775Z,26.80
2018-11-14T23:30:12.055Z,27.27
2018-11-14T23:32:40.985Z,28.40
2018-11-14T23:35:14.322Z,27.23
2018-11-14T23:37:42.418Z,27.03
2018-11-14T23:40:10.502Z,28.10
2018-11-14T23:42:38.458Z,26.97
2018-11-14T23:45:08.719Z,29.63
2018-11-14T23:47:36.897Z,30.68
2018-11-14T23:50:07.764Z,29.43
2018-11-14T23:52:38.659Z,27.57
2018-11-14T23:55:06.993Z,30.20
2018-11-14T23:57:34.899Z,29.60
